Time;durP1;ratioP1;P1;durP2;ratioP2;P2;SDS_P1;SDS_P2;PMS_P1;PMS_P2;Temp;Humidity;BMP_temperature;BMP_pressure;BME280_temperature;BME280_humidity;BME280_pressure;Samples;Min_cycle;Max_cycle;Signal;HPM_P1;HPM_P2
2023/07/05 00:00:48;;;;;;;19.05;9.20;;;;;;;23.72;46.03;100504.22;5001093;28;20042;-32
2023/07/05 00:03:15;;;;;;;15.07;8.70;;;;;;;23.71;46.39;100510.66;5002026;28;20060;-33
2023/07/05 00:05:42;;;;;;;15.15;8.60;;;;;;;23.69;46.29;100497.34;4997424;28;20147;-32
2023/07/05 00:08:09;;;;;;;15.38;8.02;;;;;;;23.67;46.45;100477.75;4997645;28;20133;-33
2023/07/05 00:10:36;;;;;;;13.68;7.60;;;;;;;23.67;46.13;100463.38;5001518;28;20042;-32
2023/07/05 00:13:02;;;;;;;15.20;8.10;;;;;;;23.67;46.00;100468.81;5001762;28;20198;-32
2023/07/05 00:15:30;;;;;;;13.35;7.75;;;;;;;23.64;46.24;100462.75;5004339;28;20450;-33
2023/07/05 00:17:58;;;;;;;14.90;7.97;;;;;;;23.63;46.55;100455.63;5000083;28;20289;-33
2023/07/05 00:20:25;;;;;;;14.88;7.80;;;;;;;23.62;46.55;100437.75;5002543;28;20134;-33
2023/07/05 00:22:52;;;;;;;12.77;7.47;;;;;;;23.61;46.44;100436.06;4999222;28;20046;-31
2023/07/05 00:25:19;;;;;;;15.40;7.63;;;;;;;23.60;46.14;100426.28;5002588;28;20058;-31
2023/07/05 00:27:47;;;;;;;15.60;7.80;;;;;;;23.60;46.58;100420.06;5002720;28;20137;-31
2023/07/05 00:30:14;;;;;;;14.20;7.68;;;;;;;23.59;46.78;100402.13;5000251;28;20056;-31
2023/07/05 00:32:41;;;;;;;11.20;7.30;;;;;;;23.58;47.07;100387.78;5002081;28;20074;-31
2023/07/05 00:35:08;;;;;;;16.75;7.38;;;;;;;23.58;47.01;100386.94;5000051;28;20366;-31
2023/07/05 00:37:34;;;;;;;13.20;6.70;;;;;;;23.56;46.81;100372.78;5000600;28;20054;-31
2023/07/05 00:40:01;;;;;;;15.38;7.30;;;;;;;23.56;47.17;100365.50;4997013;28;20125;-32
2023/07/05 00:42:28;;;;;;;12.07;7.05;;;;;;;23.55;46.97;100355.69;4999907;28;20046;-32
2023/07/05 00:45:09;;;;;;;12.60;7.00;;;;;;;23.54;47.00;100339.69;4999941;28;20054;-32
2023/07/05 00:47:39;;;;;;;11.73;7.40;;;;;;;23.53;47.21;100329.91;4996814;28;20095;-32
2023/07/05 00:50:25;;;;;;;13.68;6.95;;;;;;;23.51;47.44;100313.84;4999002;28;20045;-32
2023/07/05 00:52:54;;;;;;;12.50;6.55;;;;;;;23.52;47.18;100303.91;4998397;28;20427;-34
2023/07/05 00:55:23;;;;;;;11.35;7.25;;;;;;;23.49;47.48;100291.59;4998915;28;20058;-32
2023/07/05 00:57:50;;;;;;;10.82;6.05;;;;;;;23.49;47.57;100301.59;4998105;28;20084;-31
2023/07/05 01:00:20;;;;;;;12.15;6.88;;;;;;;23.48;47.07;100294.50;5002301;28;20054;-32
2023/07/05 01:02:53;;;;;;;12.82;6.30;;;;;;;23.47;47.46;100295.53;5003876;28;20101;-32
2023/07/05 01:05:20;;;;;;;12.35;6.38;;;;;;;23.46;47.64;100283.88;5000548;28;20516;-32
2023/07/05 01:07:47;;;;;;;10.63;6.10;;;;;;;23.46;47.81;100274.94;5005726;28;20042;-32
2023/07/05 01:10:20;;;;;;;9.25;5.65;;;;;;;23.45;47.77;100276.00;5006312;28;20104;-31
2023/07/05 01:12:59;;;;;;;9.65;5.60;;;;;;;23.43;47.99;100268.06;5008384;28;20179;-31
2023/07/05 01:15:42;;;;;;;9.23;5.78;;;;;;;23.42;47.74;100257.44;5009028;28;20045;-31
2023/07/05 01:18:09;;;;;;;10.10;5.53;;;;;;;23.43;48.15;100253.69;5007613;28;20412;-31
2023/07/05 01:20:41;;;;;;;10.43;5.20;;;;;;;23.42;47.52;100242.06;5009078;28;20813;-31
2023/07/05 01:23:44;;;;;;;10.43;5.47;;;;;;;23.38;47.77;100244.34;4999936;28;20426;-31
2023/07/05 01:26:20;;;;;;;8.55;5.10;;;;;;;23.40;48.27;100238.75;5003424;28;20061;-31
2023/07/05 01:29:08;;;;;;;9.65;5.30;;;;;;;23.39;48.58;100229.75;5007758;28;20045;-32
2023/07/05 01:31:50;;;;;;;11.25;5.47;;;;;;;23.38;48.07;100220.00;5007829;28;20049;-32
2023/07/05 01:34:42;;;;;;;10.43;4.50;;;;;;;23.36;48.67;100226.66;5002845;28;20081;-31
2023/07/05 01:37:26;;;;;;;6.97;4.25;;;;;;;23.35;48.42;100222.25;5003131;28;20162;-32
2023/07/05 01:39:52;;;;;;;6.85;4.20;;;;;;;23.35;47.87;100230.38;5003754;28;20069;-31
2023/07/05 01:42:24;;;;;;;7.90;3.92;;;;;;;23.33;48.69;100230.59;5004821;28;20046;-31
2023/07/05 01:44:51;;;;;;;8.32;4.75;;;;;;;23.32;48.90;100238.94;5005482;28;20107;-31
2023/07/05 01:47:27;;;;;;;7.53;3.95;;;;;;;23.32;48.82;100230.81;5006444;28;20049;-31
2023/07/05 01:50:15;;;;;;;6.88;4.20;;;;;;;23.30;49.30;100227.47;5002802;28;20081;-31
2023/07/05 01:52:56;;;;;;;7.32;3.97;;;;;;;23.30;48.73;100227.47;5003955;28;20100;-31
2023/07/05 01:55:32;;;;;;;6.55;3.65;;;;;;;23.28;49.45;100218.72;5003310;28;20508;-31
2023/07/05 01:58:03;;;;;;;6.75;3.20;;;;;;;23.27;48.92;100228.69;5005664;28;20438;-31
2023/07/05 02:00:30;;;;;;;4.80;3.08;;;;;;;23.26;49.08;100227.03;5000199;28;20061;-31
2023/07/05 02:03:01;;;;;;;5.15;3.13;;;;;;;23.25;49.36;100236.19;5001844;28;20057;-34
2023/07/05 02:05:30;;;;;;;4.72;2.72;;;;;;;23.25;48.59;100240.75;5002929;28;20144;-31
2023/07/05 02:07:59;;;;;;;5.82;2.78;;;;;;;23.24;48.68;100231.00;4997331;28;20104;-31
2023/07/05 02:10:26;;;;;;;5.05;3.30;;;;;;;23.23;48.91;100238.25;5004638;28;20141;-31
2023/07/05 02:12:54;;;;;;;5.30;3.13;;;;;;;23.22;48.84;100246.56;5003145;28;20046;-31
2023/07/05 02:15:21;;;;;;;6.75;2.92;;;;;;;23.22;48.70;100243.88;5002639;28;20050;-31
2023/07/05 02:17:47;;;;;;;4.10;2.25;;;;;;;23.21;49.08;100243.03;5004885;28;20433;-33
2023/07/05 02:20:14;;;;;;;4.95;2.90;;;;;;;23.18;49.04;100251.53;5028929;28;20081;-31
2023/07/05 02:22:41;;;;;;;4.35;2.40;;;;;;;23.17;48.75;100251.75;4997942;28;20390;-31
2023/07/05 02:25:08;;;;;;;3.97;2.10;;;;;;;23.15;48.43;100263.59;5003929;28;20133;-31
2023/07/05 02:27:35;;;;;;;5.13;2.15;;;;;;;23.11;48.70;100258.78;5004201;28;20108;-31
2023/07/05 02:30:02;;;;;;;3.22;1.95;;;;;;;23.08;48.40;100251.94;5003949;28;20046;-32
2023/07/05 02:32:29;;;;;;;5.07;2.15;;;;;;;23.07;48.53;100257.53;5000801;28;20053;-32
2023/07/05 02:35:00;;;;;;;5.40;2.00;;;;;;;23.05;48.47;100246.91;5003431;28;20609;-32
2023/07/05 02:37:26;;;;;;;4.45;2.00;;;;;;;23.03;48.33;100253.56;5007002;28;20042;-32
2023/07/05 02:39:53;;;;;;;6.25;2.33;;;;;;;23.01;48.05;100259.16;5002345;28;20382;-31
2023/07/05 02:42:20;;;;;;;3.97;1.90;;;;;;;23.00;48.12;100240.47;5003319;28;20073;-32
2023/07/05 02:44:51;;;;;;;5.85;2.30;;;;;;;22.98;48.32;100256.03;4999026;28;20068;-32
2023/07/05 02:47:19;;;;;;;4.93;2.45;;;;;;;22.97;48.20;100252.50;5001674;28;20504;-32
2023/07/05 02:49:46;;;;;;;3.55;1.50;;;;;;;22.95;47.88;100257.25;5001256;28;20054;-31
2023/07/05 02:52:13;;;;;;;4.07;1.67;;;;;;;22.95;47.57;100259.97;5000359;28;20406;-33
2023/07/05 02:54:40;;;;;;;5.10;2.30;;;;;;;22.92;48.09;100252.28;5001742;28;20378;-33
2023/07/05 02:57:07;;;;;;;3.75;1.98;;;;;;;22.89;47.74;100249.94;5003350;28;20054;-33
2023/07/05 02:59:33;;;;;;;5.28;2.22;;;;;;;22.88;47.91;100240.16;5005709;28;20077;-31
2023/07/05 03:02:00;;;;;;;4.35;2.30;;;;;;;22.84;48.01;100255.94;5001639;28;20104;-32
2023/07/05 03:04:27;;;;;;;5.47;2.20;;;;;;;22.83;47.55;100285.84;5000799;28;20056;-31
2023/07/05 03:06:54;;;;;;;4.93;1.75;;;;;;;22.82;47.49;100251.75;5005659;28;20105;-32
2023/07/05 03:09:21;;;;;;;4.65;2.42;;;;;;;22.81;47.31;100248.22;5002258;28;20485;-32
2023/07/05 03:11:47;;;;;;;5.50;2.78;;;;;;;22.80;47.30;100251.97;5002033;28;20362;-32
2023/07/05 03:14:14;;;;;;;4.63;2.15;;;;;;;22.79;47.28;100230.53;4998305;28;20046;-31
2023/07/05 03:16:41;;;;;;;3.70;2.17;;;;;;;22.78;47.26;100243.22;5007449;28;20461;-32
2023/07/05 03:19:10;;;;;;;5.28;2.40;;;;;;;22.76;47.11;100231.78;5001278;28;20124;-33
2023/07/05 03:21:37;;;;;;;6.47;2.85;;;;;;;22.73;47.28;100237.59;5007609;28;20356;-32
2023/07/05 03:24:04;;;;;;;5.10;2.50;;;;;;;22.70;47.08;100232.56;5006474;28;20393;-33
2023/07/05 03:26:31;;;;;;;3.85;2.50;;;;;;;22.67;46.91;100231.13;5007218;28;20042;-32
2023/07/05 03:28:57;;;;;;;5.53;2.78;;;;;;;22.66;47.22;100226.72;5003960;28;20717;-31
2023/07/05 03:31:24;;;;;;;5.35;2.05;;;;;;;22.67;46.92;100232.97;5001900;28;20457;-32
2023/07/05 03:33:52;;;;;;;5.47;2.45;;;;;;;22.67;47.31;100227.56;4999144;28;20058;-32
2023/07/05 03:36:20;;;;;;;7.45;2.70;;;;;;;22.66;46.94;100215.94;5003350;28;20042;-32
2023/07/05 03:38:53;;;;;;;4.93;2.10;;;;;;;22.64;47.24;100223.41;5002463;28;20050;-32
2023/07/05 03:41:22;;;;;;;3.80;2.40;;;;;;;22.64;46.73;100218.00;4997345;28;20135;-32
2023/07/05 03:43:53;;;;;;;8.90;3.33;;;;;;;22.64;47.02;100233.38;5001517;28;20078;-32
2023/07/05 03:46:20;;;;;;;4.85;2.35;;;;;;;22.64;46.83;100227.97;5004468;28;20038;-32
2023/07/05 03:48:47;;;;;;;3.28;2.38;;;;;;;22.63;46.81;100227.16;4998805;28;20059;-32
2023/07/05 03:51:17;;;;;;;4.40;2.50;;;;;;;22.62;46.82;100213.81;5002276;28;20042;-32
2023/07/05 03:53:51;;;;;;;4.53;2.33;;;;;;;22.60;46.90;100224.84;4999015;28;20103;-32
2023/07/05 03:56:18;;;;;;;5.18;2.65;;;;;;;22.60;47.12;100211.34;5005811;28;20116;-32
2023/07/05 03:58:45;;;;;;;5.18;2.67;;;;;;;22.57;46.67;100211.72;5001849;28;20100;-32
2023/07/05 04:01:23;;;;;;;5.97;2.75;;;;;;;22.54;46.79;100195.09;4998538;28;20074;-32
2023/07/05 04:03:55;;;;;;;5.90;2.65;;;;;;;22.54;46.62;100209.41;5003368;28;20053;-32
2023/07/05 04:06:24;;;;;;;4.70;2.67;;;;;;;22.52;46.50;100207.97;5002679;28;20061;-31
2023/07/05 04:08:51;;;;;;;9.02;2.83;;;;;;;22.51;46.53;100199.00;5000618;28;20673;-31
2023/07/05 04:11:18;;;;;;;7.00;2.55;;;;;;;22.50;47.16;100194.66;4997199;28;20081;-32
2023/07/05 04:13:45;;;;;;;5.05;2.72;;;;;;;22.50;46.70;100196.50;5000686;28;20050;-31
2023/07/05 04:16:18;;;;;;;6.40;2.67;;;;;;;22.49;46.98;100192.97;5002661;28;20046;-31
2023/07/05 04:18:49;;;;;;;6.95;2.58;;;;;;;22.49;46.51;100197.56;5000761;28;20046;-31
2023/07/05 04:21:16;;;;;;;5.22;2.40;;;;;;;22.48;46.84;100202.13;4997591;28;20050;-31
2023/07/05 04:23:43;;;;;;;5.55;3.10;;;;;;;22.49;46.49;100211.88;5001443;28;20080;-32
2023/07/05 04:26:12;;;;;;;9.13;2.72;;;;;;;22.48;46.83;100185.09;5002009;28;20046;-31
2023/07/05 04:28:40;;;;;;;4.60;2.80;;;;;;;22.46;46.54;100193.38;5001091;28;20083;-31
2023/07/05 04:31:11;;;;;;;6.47;2.83;;;;;;;22.46;46.53;100198.78;5003557;28;20120;-31
2023/07/05 04:33:38;;;;;;;6.50;2.53;;;;;;;22.45;46.38;100199.81;4998352;28;20050;-31
2023/07/05 04:36:05;;;;;;;6.53;3.03;;;;;;;22.43;46.53;100199.16;4999195;28;20144;-31
2023/07/05 04:38:48;;;;;;;10.88;3.45;;;;;;;22.41;46.57;100225.53;4997090;28;20053;-31
2023/07/05 04:41:15;;;;;;;6.40;3.25;;;;;;;22.40;46.71;100245.50;5006291;28;20046;-31
2023/07/05 04:43:42;;;;;;;9.00;2.85;;;;;;;22.37;46.70;100232.38;5007014;28;20051;-31
2023/07/05 04:46:08;;;;;;;5.38;2.67;;;;;;;22.34;46.96;100232.75;5003542;28;20128;-31
2023/07/05 04:48:35;;;;;;;5.57;2.67;;;;;;;22.32;47.23;100235.66;5002894;28;20125;-32
2023/07/05 04:51:02;;;;;;;6.07;3.00;;;;;;;22.29;46.85;100237.94;5005208;28;20399;-32
2023/07/05 04:53:28;;;;;;;5.47;2.70;;;;;;;22.27;46.97;100226.47;4997762;28;20073;-32
2023/07/05 04:55:57;;;;;;;6.15;3.00;;;;;;;22.25;47.16;100239.34;5002394;28;20336;-33
2023/07/05 04:58:25;;;;;;;4.15;2.60;;;;;;;22.24;47.28;100216.09;5004525;28;20054;-31
2023/07/05 05:00:52;;;;;;;5.68;3.05;;;;;;;22.21;47.35;100211.91;5003657;28;20707;-31
2023/07/05 05:03:22;;;;;;;5.50;3.03;;;;;;;22.15;47.58;100213.53;5002632;28;20046;-31
2023/07/05 05:05:51;;;;;;;4.38;2.70;;;;;;;22.12;47.66;100218.47;5002988;28;20050;-32
2023/07/05 05:08:19;;;;;;;6.10;3.08;;;;;;;22.10;47.92;100215.94;5002817;28;20469;-31
2023/07/05 05:10:54;;;;;;;5.40;2.90;;;;;;;22.09;47.61;100203.47;5005868;28;20054;-32
2023/07/05 05:13:22;;;;;;;5.97;2.92;;;;;;;22.09;47.77;100216.97;5008470;28;20038;-31
2023/07/05 05:15:50;;;;;;;5.47;2.92;;;;;;;22.08;47.50;100191.03;5009069;28;20054;-32
2023/07/05 05:18:17;;;;;;;4.30;2.83;;;;;;;22.08;47.94;100201.00;5001564;28;20058;-32
2023/07/05 05:20:45;;;;;;;6.97;3.00;;;;;;;22.07;47.61;100202.00;5005491;28;20353;-33
2023/07/05 05:23:12;;;;;;;7.95;3.25;;;;;;;22.06;47.69;100220.06;5001365;28;20042;-32
2023/07/05 05:25:44;;;;;;;5.07;2.60;;;;;;;22.07;48.00;100216.34;5003223;28;20129;-32
2023/07/05 05:28:12;;;;;;;7.20;3.15;;;;;;;22.07;47.93;100210.94;5002783;28;20433;-31
2023/07/05 05:30:39;;;;;;;6.15;3.33;;;;;;;22.08;47.72;100206.38;5005569;28;20433;-31
2023/07/05 05:33:10;;;;;;;7.78;3.67;;;;;;;22.08;47.51;100206.38;5004572;28;20050;-33
2023/07/05 05:35:37;;;;;;;8.10;4.28;;;;;;;22.08;47.86;100201.81;5005261;28;20288;-32
2023/07/05 05:38:04;;;;;;;14.85;7.63;;;;;;;22.07;48.17;100202.00;5000847;28;20065;-32
2023/07/05 05:40:34;;;;;;;9.13;5.57;;;;;;;22.06;48.30;100203.88;4996762;28;20141;-31
2023/07/05 05:43:00;;;;;;;10.63;5.78;;;;;;;22.05;48.28;100207.59;5004394;28;20053;-32
2023/07/05 05:45:27;;;;;;;11.13;6.32;;;;;;;22.03;48.13;100204.28;5001060;28;20050;-32
2023/07/05 05:47:54;;;;;;;10.63;6.25;;;;;;;22.02;48.28;100202.59;5003452;28;20045;-32
2023/07/05 05:50:22;;;;;;;13.10;5.88;;;;;;;22.01;48.31;100203.63;5003552;28;20050;-32
2023/07/05 05:52:49;;;;;;;12.88;6.85;;;;;;;22.01;48.23;100229.78;5000277;28;20329;-35
2023/07/05 05:55:16;;;;;;;13.75;7.05;;;;;;;22.00;48.30;100228.13;5002837;28;20345;-32
2023/07/05 05:57:43;;;;;;;11.55;6.55;;;;;;;21.99;48.24;100251.56;4999266;28;20078;-33
2023/07/05 06:00:10;;;;;;;11.80;6.30;;;;;;;22.00;47.97;100230.81;5002092;28;20054;-32
2023/07/05 06:02:38;;;;;;;12.38;6.85;;;;;;;21.99;47.86;100235.38;5002719;28;20107;-32
2023/07/05 06:05:05;;;;;;;13.50;6.75;;;;;;;21.99;47.76;100230.00;5000802;28;20065;-32
2023/07/05 06:07:31;;;;;;;16.05;7.00;;;;;;;21.99;47.98;100245.31;5001279;28;20727;-32
2023/07/05 06:09:58;;;;;;;12.35;6.68;;;;;;;21.97;47.74;100250.91;5003838;28;20310;-32
2023/07/05 06:12:25;;;;;;;14.18;7.25;;;;;;;21.96;48.18;100246.56;5004258;28;20235;-32
2023/07/05 06:14:51;;;;;;;14.05;8.00;;;;;;;21.96;47.82;100248.44;5000557;28;20054;-32
2023/07/05 06:17:18;;;;;;;12.90;7.03;;;;;;;21.95;47.79;100253.00;5001976;28;20551;-33
2023/07/05 06:19:44;;;;;;;14.90;7.35;;;;;;;21.92;47.92;100245.28;5003236;28;20108;-31
2023/07/05 06:22:11;;;;;;;14.93;6.93;;;;;;;21.90;47.82;100220.34;5001056;28;20046;-32
2023/07/05 06:24:38;;;;;;;13.75;6.95;;;;;;;21.88;47.75;100223.25;4985377;28;20428;-35
2023/07/05 06:27:04;;;;;;;12.32;5.10;;;;;;;21.86;48.13;100219.88;4995856;28;20089;-32
2023/07/05 06:29:31;;;;;;;12.70;5.63;;;;;;;21.86;47.85;100198.31;4994523;28;20641;-31
2023/07/05 06:31:57;;;;;;;10.48;5.60;;;;;;;21.86;47.72;100197.47;4995631;28;20058;-33
2023/07/05 06:34:24;;;;;;;10.90;5.47;;;;;;;21.86;47.95;100202.88;4993280;28;20136;-31
2023/07/05 06:36:51;;;;;;;11.40;4.93;;;;;;;21.88;47.79;100198.13;4969322;28;20170;-32
2023/07/05 06:39:18;;;;;;;11.18;4.32;;;;;;;21.85;47.65;100206.59;5018889;28;20054;-32
2023/07/05 06:41:47;;;;;;;10.35;4.97;;;;;;;21.84;47.72;100188.75;4997794;28;20057;-32
2023/07/05 06:44:13;;;;;;;14.30;5.53;;;;;;;21.86;47.48;100219.88;4990375;28;20062;-31
2023/07/05 06:46:40;;;;;;;12.38;5.68;;;;;;;21.90;47.95;100236.53;4995173;28;20176;-34
2023/07/05 06:49:07;;;;;;;7.93;4.25;;;;;;;21.90;47.71;100218.47;4994499;28;20064;-33
2023/07/05 06:51:33;;;;;;;9.63;3.90;;;;;;;21.91;47.14;100227.44;4999846;28;20195;-33
2023/07/05 06:54:00;;;;;;;12.30;5.45;;;;;;;21.91;47.43;100224.72;4999040;28;20442;-32
2023/07/05 06:56:26;;;;;;;9.32;4.88;;;;;;;21.93;47.43;100234.28;4963501;28;20144;-33
2023/07/05 06:58:53;;;;;;;11.75;5.25;;;;;;;21.94;47.46;100225.16;5018692;28;20049;-34
2023/07/05 07:01:19;;;;;;;12.20;5.35;;;;;;;21.98;47.84;100206.72;5024736;28;20425;-32
2023/07/05 07:03:46;;;;;;;14.07;5.85;;;;;;;22.00;47.61;100230.81;5018195;28;20362;-33
2023/07/05 07:06:13;;;;;;;14.23;6.63;;;;;;;22.04;47.66;100226.69;5019455;28;20089;-32
2023/07/05 07:08:40;;;;;;;11.70;6.45;;;;;;;22.07;47.61;100245.19;5021017;28;20133;-34
2023/07/05 07:11:09;;;;;;;11.43;5.57;;;;;;;22.09;47.43;100238.56;5019495;28;20088;-32
2023/07/05 07:13:36;;;;;;;14.98;5.68;;;;;;;22.10;47.37;100252.88;5013352;28;20046;-32
2023/07/05 07:16:06;;;;;;;11.20;5.40;;;;;;;22.12;47.35;100235.47;5005531;28;20057;-34
2023/07/05 07:18:36;;;;;;;12.90;6.32;;;;;;;22.14;47.21;100246.09;5011564;28;20329;-33
2023/07/05 07:21:05;;;;;;;17.33;7.78;;;;;;;22.16;47.42;100255.69;5014686;28;20049;-33
2023/07/05 07:23:32;;;;;;;17.48;9.13;;;;;;;22.21;47.68;100275.88;5013241;28;20513;-33
2023/07/05 07:26:01;;;;;;;17.88;8.57;;;;;;;22.24;47.65;100275.47;5013126;28;20061;-33
2023/07/05 07:28:28;;;;;;;18.90;8.35;;;;;;;22.29;47.38;100278.41;5013962;28;20042;-32
2023/07/05 07:30:55;;;;;;;17.02;8.95;;;;;;;22.31;47.58;100288.00;5013903;28;20075;-31
2023/07/05 07:33:22;;;;;;;17.27;9.38;;;;;;;22.35;47.59;100293.81;5016287;28;20081;-31
2023/07/05 07:35:49;;;;;;;19.45;9.70;;;;;;;22.38;47.61;100315.88;5010603;28;20590;-32
2023/07/05 07:38:16;;;;;;;17.63;10.05;;;;;;;22.41;47.47;100325.47;4985375;28;20061;-31
2023/07/05 07:40:43;;;;;;;19.85;9.55;;;;;;;22.44;47.26;100311.56;5013154;28;20054;-34
2023/07/05 07:43:09;;;;;;;29.17;11.73;;;;;;;22.45;47.14;100326.75;5016845;28;20141;-34
2023/07/05 07:45:36;;;;;;;34.55;13.13;;;;;;;22.47;47.80;100335.47;5008595;28;20069;-33
2023/07/05 07:48:04;;;;;;;35.85;14.70;;;;;;;22.50;47.33;100335.09;5012540;28;20048;-34
2023/07/05 07:50:31;;;;;;;43.25;15.80;;;;;;;22.54;47.84;100355.25;5013620;28;20053;-33
2023/07/05 07:52:58;;;;;;;34.22;14.32;;;;;;;22.56;47.78;100364.03;5013518;28;20379;-33
2023/07/05 07:55:24;;;;;;;37.50;15.02;;;;;;;22.58;47.36;100383.56;5010104;28;20472;-32
2023/07/05 07:57:51;;;;;;;32.40;15.48;;;;;;;22.60;47.50;100389.63;4982086;28;20052;-35
2023/07/05 08:00:18;;;;;;;30.65;14.57;;;;;;;22.62;47.68;100394.81;5017091;28;20057;-32
2023/07/05 08:02:45;;;;;;;32.92;14.43;;;;;;;22.62;47.83;100409.16;5014042;28;20053;-33
2023/07/05 08:05:16;;;;;;;31.75;14.52;;;;;;;22.62;47.64;100419.97;5013741;28;20052;-33
2023/07/05 08:07:43;;;;;;;30.52;13.50;;;;;;;22.64;47.37;100471.09;5011035;28;20132;-32
2023/07/05 08:10:11;;;;;;;30.55;13.82;;;;;;;22.63;47.20;100424.34;5013340;28;20296;-32
2023/07/05 08:12:38;;;;;;;34.35;12.68;;;;;;;22.65;47.40;100411.47;5011641;28;20340;-33
2023/07/05 08:15:06;;;;;;;30.63;13.70;;;;;;;22.66;47.64;100437.44;5010813;28;20151;-34
2023/07/05 08:17:35;;;;;;;37.35;16.13;;;;;;;22.70;47.55;100431.66;4986210;28;20063;-33
2023/07/05 08:20:03;;;;;;;38.03;18.70;;;;;;;22.70;47.62;100439.78;5020941;28;20119;-32
2023/07/05 08:22:30;;;;;;;37.22;19.70;;;;;;;22.71;47.41;100463.88;5012520;28;20699;-33
2023/07/05 08:24:57;;;;;;;39.63;21.15;;;;;;;22.73;47.34;100469.09;5016694;28;20104;-32
2023/07/05 08:27:24;;;;;;;40.20;21.00;;;;;;;22.74;47.51;100481.56;5013960;28;20446;-33
2023/07/05 08:29:51;;;;;;;45.35;22.77;;;;;;;22.75;47.15;100494.88;5011529;28;20476;-32
2023/07/05 08:32:19;;;;;;;42.08;22.08;;;;;;;22.76;47.37;100504.69;5012901;28;20062;-33
2023/07/05 08:34:46;;;;;;;39.97;21.98;;;;;;;22.78;46.89;100499.06;5015035;28;20339;-33
2023/07/05 08:37:12;;;;;;;38.55;21.08;;;;;;;22.79;47.39;100511.56;4974985;28;20176;-32
2023/07/05 08:39:39;;;;;;;34.63;20.55;;;;;;;22.79;47.00;100508.84;5005549;28;20135;-33
2023/07/05 08:42:08;;;;;;;40.53;20.30;;;;;;;22.80;47.25;100524.06;4995190;28;20744;-32
2023/07/05 08:45:02;;;;;;;40.55;21.52;;;;;;;22.80;47.14;100526.75;4992054;28;20104;-33
2023/07/05 08:47:33;;;;;;;39.40;20.30;;;;;;;22.81;47.05;100531.94;4992607;28;20479;-33
2023/07/05 08:50:03;;;;;;;33.85;20.10;;;;;;;22.82;46.66;100546.28;4993122;28;20396;-33
2023/07/05 08:52:48;;;;;;;43.63;23.40;;;;;;;22.83;46.82;100566.88;4985939;28;20050;-34
2023/07/05 08:55:25;;;;;;;40.08;22.15;;;;;;;22.82;46.65;100579.56;4997475;28;20096;-32
2023/07/05 08:57:54;;;;;;;38.88;22.88;;;;;;;22.82;46.62;100584.13;4973066;28;20439;-34
2023/07/05 09:00:48;;;;;;;40.67;22.55;;;;;;;22.82;46.61;100594.94;5027795;28;20159;-33
2023/07/05 09:03:15;;;;;;;46.25;24.67;;;;;;;22.83;46.64;100597.44;5012003;28;20057;-33
2023/07/05 09:05:52;;;;;;;45.00;25.35;;;;;;;22.81;46.41;100602.22;5034489;28;20045;-33
2023/07/05 09:08:43;;;;;;;46.10;26.30;;;;;;;22.81;46.97;100602.22;5026241;28;20344;-32
2023/07/05 09:11:25;;;;;;;45.55;26.17;;;;;;;22.82;46.55;100625.50;5031474;28;20141;-33
2023/07/05 09:14:03;;;;;;;47.95;25.27;;;;;;;22.81;46.29;100639.22;5020887;28;20213;-32
2023/07/05 09:16:51;;;;;;;43.13;23.90;;;;;;;22.81;46.80;100645.44;4987121;28;20164;-34
2023/07/05 09:19:36;;;;;;;42.97;24.05;;;;;;;22.80;46.43;100653.75;5041439;28;20049;-32
2023/07/05 09:22:08;;;;;;;44.63;24.17;;;;;;;22.81;46.57;100677.03;5030023;28;20357;-33
2023/07/05 09:24:39;;;;;;;48.58;25.15;;;;;;;22.81;46.20;100677.03;5008876;28;20139;-32
2023/07/05 09:27:17;;;;;;;46.53;24.63;;;;;;;22.80;46.69;100697.00;5021836;28;20112;-32
2023/07/05 09:29:47;;;;;;;39.00;22.45;;;;;;;22.79;46.59;100701.53;5016279;28;20080;-33
2023/07/05 09:32:18;;;;;;;38.38;21.88;;;;;;;22.78;46.32;100707.13;5014621;28;20088;-32
2023/07/05 09:34:51;;;;;;;37.50;20.63;;;;;;;22.79;46.47;100716.91;5014397;28;20041;-33
2023/07/05 09:37:21;;;;;;;34.63;20.52;;;;;;;22.77;46.76;100724.38;4984034;28;20518;-33
2023/07/05 09:39:59;;;;;;;39.08;21.67;;;;;;;22.76;46.25;100720.00;5025956;28;20077;-33
2023/07/05 09:42:32;;;;;;;35.33;20.23;;;;;;;22.75;46.21;100724.56;5018269;28;20107;-33
2023/07/05 09:44:59;;;;;;;;;;;;;;;22.73;46.34;100742.00;5021788;28;20092;-32
2023/07/05 09:47:26;;;;;;;34.15;18.40;;;;;;;22.76;46.40;100744.34;5031616;28;19924;-32
2023/07/05 09:49:53;;;;;;;32.05;19.10;;;;;;;22.75;46.23;100753.44;5026291;28;20046;-32
2023/07/05 09:52:23;;;;;;;36.22;20.60;;;;;;;22.73;46.43;100750.09;5027796;28;20092;-32
2023/07/05 09:54:54;;;;;;;34.42;18.23;;;;;;;22.70;46.35;100754.00;5020640;28;20120;-33
2023/07/05 09:57:25;;;;;;;35.42;18.80;;;;;;;22.71;46.55;100757.53;4995647;28;20053;-33
2023/07/05 09:59:52;;;;;;;30.80;17.17;;;;;;;22.70;46.93;100753.19;5034880;28;20053;-30
2023/07/05 10:02:24;;;;;;;31.33;17.52;;;;;;;22.70;46.73;100758.56;5033057;28;20441;-32
2023/07/05 10:04:58;;;;;;;31.00;16.15;;;;;;;22.72;46.65;100778.16;5037027;28;20718;-31
2023/07/05 10:07:29;;;;;;;;;;;;;;;22.70;47.15;100781.03;5019930;28;20049;-32
2023/07/05 10:10:08;;;;;;;31.25;16.92;;;;;;;22.75;46.71;100793.97;5016205;28;20397;-31
2023/07/05 10:12:37;;;;;;;27.17;15.98;;;;;;;22.76;46.72;100787.56;5015110;28;20045;-32
2023/07/05 10:15:21;;;;;;;25.27;14.13;;;;;;;22.76;46.86;100795.69;5016454;28;20451;-32
2023/07/05 10:17:51;;;;;;;28.38;15.70;;;;;;;22.78;46.76;100799.03;4976210;28;20220;-32
2023/07/05 10:20:27;;;;;;;29.17;15.32;;;;;;;22.80;46.83;100805.09;5009954;28;20052;-31
2023/07/05 10:23:05;;;;;;;27.52;15.30;;;;;;;22.81;46.95;100806.75;4995734;28;20464;-32
2023/07/05 10:25:35;;;;;;;30.48;17.50;;;;;;;22.83;47.10;100810.94;4999970;28;20103;-31
2023/07/05 10:28:04;;;;;;;35.25;19.85;;;;;;;22.86;46.94;100815.13;5001413;28;20096;-31
2023/07/05 10:30:33;;;;;;;31.02;19.67;;;;;;;22.88;46.73;100816.63;4997303;28;20061;-31
2023/07/05 10:33:30;;;;;;;36.00;19.98;;;;;;;22.89;47.28;100841.81;4999143;28;20433;-31
2023/07/05 10:36:04;;;;;;;35.15;20.77;;;;;;;22.93;46.83;100851.25;4996159;28;20605;-33
2023/07/05 10:38:46;;;;;;;34.83;21.88;;;;;;;22.94;46.70;100849.38;4983525;28;20395;-34
2023/07/05 10:41:19;;;;;;;39.38;19.27;;;;;;;22.97;46.71;100852.56;5017410;28;20466;-34
2023/07/05 10:43:57;;;;;;;33.05;19.55;;;;;;;22.98;46.94;100858.78;5016029;28;20724;-33
2023/07/05 10:46:25;;;;;;;34.97;19.88;;;;;;;23.00;46.65;100865.72;5017218;28;20088;-33
2023/07/05 10:48:53;;;;;;;31.95;19.15;;;;;;;23.02;46.54;100877.16;5014699;28;20650;-33
2023/07/05 10:51:23;;;;;;;33.10;18.58;;;;;;;23.04;46.46;100868.88;5017083;28;20057;-32
2023/07/05 10:54:09;;;;;;;29.50;16.95;;;;;;;23.04;46.56;100866.19;5019148;28;20046;-32
2023/07/05 10:56:38;;;;;;;31.05;17.75;;;;;;;23.07;46.78;100876.59;5013213;28;20045;-32
2023/07/05 10:59:13;;;;;;;30.63;17.08;;;;;;;23.06;46.25;100875.75;4997062;28;20305;-32
2023/07/05 11:01:49;;;;;;;32.25;18.95;;;;;;;23.06;46.32;100897.38;5020415;28;20344;-32
2023/07/05 11:04:21;;;;;;;31.80;18.30;;;;;;;23.08;46.28;100914.28;5023966;28;20061;-32
2023/07/05 11:06:52;;;;;;;31.60;17.42;;;;;;;23.07;46.28;100915.28;5017953;28;20045;-33
2023/07/05 11:09:19;;;;;;;29.40;17.33;;;;;;;23.07;46.44;100931.50;5018589;28;20053;-32
2023/07/05 11:11:55;;;;;;;31.63;17.02;;;;;;;23.07;46.45;100942.31;5018621;28;20427;-33
2023/07/05 11:14:25;;;;;;;26.25;16.42;;;;;;;23.06;46.44;100946.06;5004179;28;20425;-33
2023/07/05 11:16:52;;;;;;;28.15;16.23;;;;;;;23.06;46.37;100959.56;5019228;28;20148;-33
2023/07/05 11:19:25;;;;;;;26.25;15.30;;;;;;;23.05;46.77;100966.00;5012660;28;20060;-32
2023/07/05 11:21:52;;;;;;;25.25;15.27;;;;;;;23.05;46.33;100984.94;5019200;28;20380;-32
2023/07/05 11:24:31;;;;;;;26.15;15.90;;;;;;;23.04;46.82;100985.97;5024497;28;20519;-32
2023/07/05 11:27:00;;;;;;;25.60;15.02;;;;;;;23.05;46.57;100987.63;5028478;28;20099;-32
2023/07/05 11:29:26;;;;;;;26.42;14.93;;;;;;;23.05;46.33;100997.63;5027524;28;20053;-32
2023/07/05 11:31:53;;;;;;;24.02;13.73;;;;;;;23.05;46.53;100992.22;5022526;28;20766;-31